sensor_id;sensor_type;location;lat;lon;timestamp;P1;durP1;ratioP1;P2;durP2;ratioP2
59974;SDS011;62136;-35.664;-63.766;2023-11-21T00:00:21;1.58;;;1.13;;
59974;SDS011;62136;-35.664;-63.766;2023-11-21T00:02:48;1.63;;;0.90;;
59974;SDS011;62136;-35.664;-63.766;2023-11-21T00:05:15;2.20;;;1.00;;
59974;SDS011;62136;-35.664;-63.766;2023-11-21T00:07:43;4.03;;;1.10;;
59974;SDS011;62136;-35.664;-63.766;2023-11-21T00:10:10;3.55;;;1.02;;
59974;SDS011;62136;-35.664;-63.766;2023-11-21T00:12:39;1.42;;;1.02;;
59974;SDS011;62136;-35.664;-63.766;2023-11-21T00:15:07;1.98;;;0.90;;
59974;SDS011;62136;-35.664;-63.766;2023-11-21T00:17:38;2.13;;;0.90;;
59974;SDS011;62136;-35.664;-63.766;2023-11-21T00:20:06;1.73;;;1.00;;
59974;SDS011;62136;-35.664;-63.766;2023-11-21T00:22:36;2.13;;;1.00;;
59974;SDS011;62136;-35.664;-63.766;2023-11-21T00:25:20;3.33;;;0.90;;
59974;SDS011;62136;-35.664;-63.766;2023-11-21T00:27:47;2.55;;;1.00;;
59974;SDS011;62136;-35.664;-63.766;2023-11-21T00:30:14;1.60;;;0.90;;
59974;SDS011;62136;-35.664;-63.766;2023-11-21T00:32:41;3.28;;;1.42;;
59974;SDS011;62136;-35.664;-63.766;2023-11-21T00:35:09;2.00;;;1.05;;
59974;SDS011;62136;-35.664;-63.766;2023-11-21T00:37:36;2.08;;;1.17;;
59974;SDS011;62136;-35.664;-63.766;2023-11-21T00:40:04;2.30;;;1.00;;
59974;SDS011;62136;-35.664;-63.766;2023-11-21T00:42:32;2.15;;;1.00;;
59974;SDS011;62136;-35.664;-63.766;2023-11-21T00:44:59;1.42;;;0.95;;
59974;SDS011;62136;-35.664;-63.766;2023-11-21T00:47:26;1.92;;;1.17;;
59974;SDS011;62136;-35.664;-63.766;2023-11-21T00:49:53;1.73;;;1.23;;
59974;SDS011;62136;-35.664;-63.766;2023-11-21T00:52:20;2.40;;;1.20;;
59974;SDS011;62136;-35.664;-63.766;2023-11-21T00:54:47;3.17;;;1.10;;
59974;SDS011;62136;-35.664;-63.766;2023-11-21T00:57:15;2.33;;;1.00;;
59974;SDS011;62136;-35.664;-63.766;2023-11-21T00:59:42;3.63;;;1.10;;
59974;SDS011;62136;-35.664;-63.766;2023-11-21T01:02:09;2.30;;;1.20;;
59974;SDS011;62136;-35.664;-63.766;2023-11-21T01:04:36;2.15;;;1.30;;
59974;SDS011;62136;-35.664;-63.766;2023-11-21T01:07:03;2.63;;;1.30;;
59974;SDS011;62136;-35.664;-63.766;2023-11-21T01:09:31;2.47;;;1.20;;
59974;SDS011;62136;-35.664;-63.766;2023-11-21T01:11:58;2.13;;;1.40;;
59974;SDS011;62136;-35.664;-63.766;2023-11-21T01:14:25;3.00;;;1.10;;
59974;SDS011;62136;-35.664;-63.766;2023-11-21T01:16:52;2.90;;;1.15;;
59974;SDS011;62136;-35.664;-63.766;2023-11-21T01:19:19;2.38;;;1.13;;
59974;SDS011;62136;-35.664;-63.766;2023-11-21T01:21:46;2.72;;;1.17;;
59974;SDS011;62136;-35.664;-63.766;2023-11-21T01:24:13;1.65;;;1.20;;
59974;SDS011;62136;-35.664;-63.766;2023-11-21T01:26:40;1.23;;;1.00;;
59974;SDS011;62136;-35.664;-63.766;2023-11-21T01:29:07;3.58;;;1.38;;
59974;SDS011;62136;-35.664;-63.766;2023-11-21T01:31:34;2.75;;;1.30;;
59974;SDS011;62136;-35.664;-63.766;2023-11-21T01:34:02;2.83;;;1.40;;
59974;SDS011;62136;-35.664;-63.766;2023-11-21T01:36:33;3.35;;;1.60;;
59974;SDS011;62136;-35.664;-63.766;2023-11-21T01:39:00;3.20;;;1.27;;
59974;SDS011;62136;-35.664;-63.766;2023-11-21T01:41:33;3.55;;;1.33;;
59974;SDS011;62136;-35.664;-63.766;2023-11-21T01:44:00;3.20;;;1.40;;
59974;SDS011;62136;-35.664;-63.766;2023-11-21T01:46:28;2.28;;;1.45;;
59974;SDS011;62136;-35.664;-63.766;2023-11-21T01:48:54;3.45;;;1.55;;
59974;SDS011;62136;-35.664;-63.766;2023-11-21T01:51:21;2.00;;;1.55;;
59974;SDS011;62136;-35.664;-63.766;2023-11-21T01:53:49;3.55;;;1.33;;
59974;SDS011;62136;-35.664;-63.766;2023-11-21T01:56:16;3.53;;;1.33;;
59974;SDS011;62136;-35.664;-63.766;2023-11-21T01:58:43;1.77;;;1.10;;
59974;SDS011;62136;-35.664;-63.766;2023-11-21T02:01:12;1.92;;;1.15;;
59974;SDS011;62136;-35.664;-63.766;2023-11-21T02:03:39;2.35;;;1.30;;
59974;SDS011;62136;-35.664;-63.766;2023-11-21T02:06:07;2.40;;;1.30;;
59974;SDS011;62136;-35.664;-63.766;2023-11-21T02:08:34;4.10;;;1.27;;
59974;SDS011;62136;-35.664;-63.766;2023-11-21T02:11:03;3.38;;;1.60;;
59974;SDS011;62136;-35.664;-63.766;2023-11-21T02:13:30;4.97;;;1.60;;
59974;SDS011;62136;-35.664;-63.766;2023-11-21T02:15:58;2.90;;;1.50;;
59974;SDS011;62136;-35.664;-63.766;2023-11-21T02:18:25;4.45;;;1.40;;
59974;SDS011;62136;-35.664;-63.766;2023-11-21T02:20:55;1.38;;;1.02;;
59974;SDS011;62136;-35.664;-63.766;2023-11-21T02:23:22;2.08;;;1.30;;
59974;SDS011;62136;-35.664;-63.766;2023-11-21T02:25:54;3.33;;;1.70;;
59974;SDS011;62136;-35.664;-63.766;2023-11-21T02:28:21;2.83;;;1.40;;
59974;SDS011;62136;-35.664;-63.766;2023-11-21T02:30:58;1.55;;;1.10;;
59974;SDS011;62136;-35.664;-63.766;2023-11-21T02:33:25;2.97;;;1.30;;
59974;SDS011;62136;-35.664;-63.766;2023-11-21T02:35:52;3.53;;;1.30;;
59974;SDS011;62136;-35.664;-63.766;2023-11-21T02:38:20;2.33;;;1.30;;
59974;SDS011;62136;-35.664;-63.766;2023-11-21T02:40:47;1.73;;;1.13;;
59974;SDS011;62136;-35.664;-63.766;2023-11-21T02:43:14;1.75;;;1.30;;
59974;SDS011;62136;-35.664;-63.766;2023-11-21T02:45:42;3.53;;;1.42;;
59974;SDS011;62136;-35.664;-63.766;2023-11-21T02:48:09;4.07;;;1.20;;
59974;SDS011;62136;-35.664;-63.766;2023-11-21T02:50:36;1.30;;;1.20;;
59974;SDS011;62136;-35.664;-63.766;2023-11-21T02:53:03;1.20;;;1.00;;
59974;SDS011;62136;-35.664;-63.766;2023-11-21T02:55:31;2.75;;;1.20;;
59974;SDS011;62136;-35.664;-63.766;2023-11-21T02:58:01;2.13;;;1.52;;
59974;SDS011;62136;-35.664;-63.766;2023-11-21T03:00:29;4.32;;;1.42;;
59974;SDS011;62136;-35.664;-63.766;2023-11-21T03:02:56;1.65;;;1.20;;
59974;SDS011;62136;-35.664;-63.766;2023-11-21T03:05:23;3.45;;;1.42;;
59974;SDS011;62136;-35.664;-63.766;2023-11-21T03:07:50;2.38;;;1.38;;
59974;SDS011;62136;-35.664;-63.766;2023-11-21T03:10:17;1.60;;;1.02;;
59974;SDS011;62136;-35.664;-63.766;2023-11-21T03:12:44;1.67;;;1.02;;
59974;SDS011;62136;-35.664;-63.766;2023-11-21T03:15:11;1.77;;;1.23;;
59974;SDS011;62136;-35.664;-63.766;2023-11-21T03:17:39;1.88;;;1.25;;
59974;SDS011;62136;-35.664;-63.766;2023-11-21T03:20:06;1.90;;;1.20;;
59974;SDS011;62136;-35.664;-63.766;2023-11-21T03:22:36;1.05;;;1.02;;
59974;SDS011;62136;-35.664;-63.766;2023-11-21T03:25:04;2.75;;;1.10;;
59974;SDS011;62136;-35.664;-63.766;2023-11-21T03:27:31;2.47;;;1.00;;
59974;SDS011;62136;-35.664;-63.766;2023-11-21T03:29:58;1.50;;;1.23;;
59974;SDS011;62136;-35.664;-63.766;2023-11-21T03:32:26;1.63;;;0.90;;
59974;SDS011;62136;-35.664;-63.766;2023-11-21T03:34:54;1.88;;;1.00;;
59974;SDS011;62136;-35.664;-63.766;2023-11-21T03:37:23;1.65;;;1.25;;
59974;SDS011;62136;-35.664;-63.766;2023-11-21T03:39:50;1.95;;;1.13;;
59974;SDS011;62136;-35.664;-63.766;2023-11-21T03:42:17;1.73;;;1.15;;
59974;SDS011;62136;-35.664;-63.766;2023-11-21T03:44:44;1.40;;;1.27;;
59974;SDS011;62136;-35.664;-63.766;2023-11-21T03:47:11;2.58;;;1.40;;
59974;SDS011;62136;-35.664;-63.766;2023-11-21T03:49:38;1.73;;;0.93;;
59974;SDS011;62136;-35.664;-63.766;2023-11-21T03:52:05;2.58;;;1.25;;
59974;SDS011;62136;-35.664;-63.766;2023-11-21T03:54:33;1.95;;;1.33;;
59974;SDS011;62136;-35.664;-63.766;2023-11-21T03:57:00;1.40;;;1.20;;
59974;SDS011;62136;-35.664;-63.766;2023-11-21T03:59:27;1.67;;;1.20;;
59974;SDS011;62136;-35.664;-63.766;2023-11-21T04:01:56;2.13;;;1.35;;
59974;SDS011;62136;-35.664;-63.766;2023-11-21T04:04:24;1.42;;;1.15;;
59974;SDS011;62136;-35.664;-63.766;2023-11-21T04:06:52;1.65;;;1.40;;
59974;SDS011;62136;-35.664;-63.766;2023-11-21T04:09:19;1.35;;;1.20;;
59974;SDS011;62136;-35.664;-63.766;2023-11-21T04:11:46;2.55;;;1.45;;
59974;SDS011;62136;-35.664;-63.766;2023-11-21T04:14:14;1.38;;;0.98;;
59974;SDS011;62136;-35.664;-63.766;2023-11-21T04:16:41;1.10;;;1.00;;
59974;SDS011;62136;-35.664;-63.766;2023-11-21T04:19:08;2.50;;;1.15;;
59974;SDS011;62136;-35.664;-63.766;2023-11-21T04:21:36;2.03;;;1.10;;
59974;SDS011;62136;-35.664;-63.766;2023-11-21T04:24:03;1.77;;;1.13;;
59974;SDS011;62136;-35.664;-63.766;2023-11-21T04:26:31;2.00;;;1.10;;
59974;SDS011;62136;-35.664;-63.766;2023-11-21T04:28:58;1.42;;;1.00;;
59974;SDS011;62136;-35.664;-63.766;2023-11-21T04:31:25;2.58;;;1.42;;
59974;SDS011;62136;-35.664;-63.766;2023-11-21T04:33:52;1.73;;;1.00;;
59974;SDS011;62136;-35.664;-63.766;2023-11-21T04:36:19;2.25;;;1.08;;
59974;SDS011;62136;-35.664;-63.766;2023-11-21T04:38:46;3.00;;;1.35;;
59974;SDS011;62136;-35.664;-63.766;2023-11-21T04:41:13;2.33;;;1.08;;
59974;SDS011;62136;-35.664;-63.766;2023-11-21T04:43:40;2.45;;;1.20;;
59974;SDS011;62136;-35.664;-63.766;2023-11-21T04:46:08;1.77;;;1.10;;
59974;SDS011;62136;-35.664;-63.766;2023-11-21T04:48:35;1.98;;;1.13;;
59974;SDS011;62136;-35.664;-63.766;2023-11-21T04:51:02;2.95;;;1.00;;
59974;SDS011;62136;-35.664;-63.766;2023-11-21T04:53:30;1.75;;;1.30;;
59974;SDS011;62136;-35.664;-63.766;2023-11-21T04:55:57;2.50;;;1.05;;
59974;SDS011;62136;-35.664;-63.766;2023-11-21T04:58:24;2.50;;;1.00;;
59974;SDS011;62136;-35.664;-63.766;2023-11-21T05:00:51;1.70;;;0.88;;
59974;SDS011;62136;-35.664;-63.766;2023-11-21T05:03:18;3.38;;;1.30;;
59974;SDS011;62136;-35.664;-63.766;2023-11-21T05:05:46;2.17;;;1.10;;
59974;SDS011;62136;-35.664;-63.766;2023-11-21T05:08:13;2.78;;;1.13;;
59974;SDS011;62136;-35.664;-63.766;2023-11-21T05:10:40;2.15;;;1.08;;
59974;SDS011;62136;-35.664;-63.766;2023-11-21T05:13:07;2.47;;;1.00;;
59974;SDS011;62136;-35.664;-63.766;2023-11-21T05:15:36;3.13;;;1.25;;
59974;SDS011;62136;-35.664;-63.766;2023-11-21T05:18:04;2.25;;;1.10;;
59974;SDS011;62136;-35.664;-63.766;2023-11-21T05:20:32;1.80;;;1.02;;
59974;SDS011;62136;-35.664;-63.766;2023-11-21T05:22:59;1.02;;;0.98;;
59974;SDS011;62136;-35.664;-63.766;2023-11-21T05:25:26;2.35;;;1.10;;
59974;SDS011;62136;-35.664;-63.766;2023-11-21T05:27:53;3.30;;;1.10;;
59974;SDS011;62136;-35.664;-63.766;2023-11-21T05:30:26;1.25;;;0.88;;
59974;SDS011;62136;-35.664;-63.766;2023-11-21T05:32:53;3.70;;;1.45;;
59974;SDS011;62136;-35.664;-63.766;2023-11-21T05:35:20;1.60;;;0.80;;
59974;SDS011;62136;-35.664;-63.766;2023-11-21T05:37:47;2.75;;;1.20;;
59974;SDS011;62136;-35.664;-63.766;2023-11-21T05:40:14;2.67;;;1.13;;
59974;SDS011;62136;-35.664;-63.766;2023-11-21T05:42:41;2.90;;;1.17;;
59974;SDS011;62136;-35.664;-63.766;2023-11-21T05:45:10;1.42;;;1.13;;
59974;SDS011;62136;-35.664;-63.766;2023-11-21T05:47:37;2.35;;;1.00;;
59974;SDS011;62136;-35.664;-63.766;2023-11-21T05:52:40;1.02;;;0.90;;
59974;SDS011;62136;-35.664;-63.766;2023-11-21T05:55:08;1.50;;;1.10;;
59974;SDS011;62136;-35.664;-63.766;2023-11-21T05:57:35;3.75;;;1.10;;
59974;SDS011;62136;-35.664;-63.766;2023-11-21T06:02:40;2.22;;;0.90;;
59974;SDS011;62136;-35.664;-63.766;2023-11-21T06:05:07;1.08;;;0.85;;
59974;SDS011;62136;-35.664;-63.766;2023-11-21T06:07:35;1.77;;;1.02;;
59974;SDS011;62136;-35.664;-63.766;2023-11-21T06:10:07;1.98;;;1.20;;
59974;SDS011;62136;-35.664;-63.766;2023-11-21T06:12:38;2.28;;;0.98;;
59974;SDS011;62136;-35.664;-63.766;2023-11-21T06:15:08;1.00;;;1.00;;
59974;SDS011;62136;-35.664;-63.766;2023-11-21T06:17:39;2.60;;;1.00;;
59974;SDS011;62136;-35.664;-63.766;2023-11-21T06:20:08;1.38;;;1.10;;
59974;SDS011;62136;-35.664;-63.766;2023-11-21T06:22:42;1.45;;;0.95;;
59974;SDS011;62136;-35.664;-63.766;2023-11-21T06:25:10;2.35;;;1.30;;
59974;SDS011;62136;-35.664;-63.766;2023-11-21T06:27:44;1.25;;;1.00;;
59974;SDS011;62136;-35.664;-63.766;2023-11-21T06:30:14;1.25;;;1.00;;
59974;SDS011;62136;-35.664;-63.766;2023-11-21T06:32:42;1.42;;;0.90;;
59974;SDS011;62136;-35.664;-63.766;2023-11-21T06:35:12;1.70;;;0.85;;
59974;SDS011;62136;-35.664;-63.766;2023-11-21T06:37:40;2.25;;;1.05;;
59974;SDS011;62136;-35.664;-63.766;2023-11-21T06:40:13;1.98;;;0.93;;
59974;SDS011;62136;-35.664;-63.766;2023-11-21T06:42:44;1.83;;;1.10;;
59974;SDS011;62136;-35.664;-63.766;2023-11-21T06:45:12;1.45;;;0.90;;
59974;SDS011;62136;-35.664;-63.766;2023-11-21T06:47:40;2.05;;;1.17;;
59974;SDS011;62136;-35.664;-63.766;2023-11-21T06:50:07;2.13;;;1.30;;
59974;SDS011;62136;-35.664;-63.766;2023-11-21T06:52:34;1.40;;;1.00;;
59974;SDS011;62136;-35.664;-63.766;2023-11-21T06:55:01;1.45;;;1.13;;
59974;SDS011;62136;-35.664;-63.766;2023-11-21T06:57:29;2.45;;;1.00;;
59974;SDS011;62136;-35.664;-63.766;2023-11-21T06:59:57;1.13;;;0.80;;
59974;SDS011;62136;-35.664;-63.766;2023-11-21T07:02:24;2.03;;;1.10;;
59974;SDS011;62136;-35.664;-63.766;2023-11-21T07:04:51;0.88;;;0.80;;
59974;SDS011;62136;-35.664;-63.766;2023-11-21T07:07:18;1.40;;;1.10;;
59974;SDS011;62136;-35.664;-63.766;2023-11-21T07:09:45;2.30;;;1.13;;
59974;SDS011;62136;-35.664;-63.766;2023-11-21T07:12:14;1.38;;;0.90;;
59974;SDS011;62136;-35.664;-63.766;2023-11-21T07:14:41;1.63;;;0.80;;
59974;SDS011;62136;-35.664;-63.766;2023-11-21T07:17:10;1.58;;;0.85;;
59974;SDS011;62136;-35.664;-63.766;2023-11-21T07:19:38;2.28;;;0.90;;
59974;SDS011;62136;-35.664;-63.766;2023-11-21T07:22:07;1.80;;;0.98;;
59974;SDS011;62136;-35.664;-63.766;2023-11-21T07:24:34;2.60;;;1.00;;
59974;SDS011;62136;-35.664;-63.766;2023-11-21T07:27:02;1.33;;;0.80;;
59974;SDS011;62136;-35.664;-63.766;2023-11-21T07:29:29;1.00;;;0.80;;
59974;SDS011;62136;-35.664;-63.766;2023-11-21T07:31:56;1.63;;;1.00;;
59974;SDS011;62136;-35.664;-63.766;2023-11-21T07:34:23;1.58;;;0.90;;
59974;SDS011;62136;-35.664;-63.766;2023-11-21T07:36:51;1.05;;;0.90;;
59974;SDS011;62136;-35.664;-63.766;2023-11-21T07:39:18;2.05;;;1.10;;
59974;SDS011;62136;-35.664;-63.766;2023-11-21T07:41:45;2.13;;;0.98;;
59974;SDS011;62136;-35.664;-63.766;2023-11-21T07:44:14;1.25;;;0.70;;
59974;SDS011;62136;-35.664;-63.766;2023-11-21T07:46:43;1.80;;;0.88;;
59974;SDS011;62136;-35.664;-63.766;2023-11-21T07:49:10;1.48;;;0.80;;
59974;SDS011;62136;-35.664;-63.766;2023-11-21T07:51:37;2.05;;;1.20;;
59974;SDS011;62136;-35.664;-63.766;2023-11-21T07:54:04;2.85;;;0.80;;
59974;SDS011;62136;-35.664;-63.766;2023-11-21T07:56:31;1.52;;;0.70;;
59974;SDS011;62136;-35.664;-63.766;2023-11-21T07:58:58;1.77;;;0.85;;
59974;SDS011;62136;-35.664;-63.766;2023-11-21T08:01:25;1.20;;;0.85;;
59974;SDS011;62136;-35.664;-63.766;2023-11-21T08:03:54;1.35;;;0.68;;
59974;SDS011;62136;-35.664;-63.766;2023-11-21T08:06:24;3.08;;;1.10;;
59974;SDS011;62136;-35.664;-63.766;2023-11-21T08:08:51;1.10;;;0.85;;
59974;SDS011;62136;-35.664;-63.766;2023-11-21T08:11:18;3.47;;;1.10;;
59974;SDS011;62136;-35.664;-63.766;2023-11-21T08:13:46;1.65;;;0.90;;
59974;SDS011;62136;-35.664;-63.766;2023-11-21T08:16:14;2.08;;;0.90;;
59974;SDS011;62136;-35.664;-63.766;2023-11-21T08:18:42;4.43;;;1.10;;
59974;SDS011;62136;-35.664;-63.766;2023-11-21T08:21:09;1.08;;;0.70;;
59974;SDS011;62136;-35.664;-63.766;2023-11-21T08:23:38;0.95;;;0.85;;
59974;SDS011;62136;-35.664;-63.766;2023-11-21T08:26:05;2.50;;;0.93;;
59974;SDS011;62136;-35.664;-63.766;2023-11-21T08:28:32;1.23;;;0.80;;
59974;SDS011;62136;-35.664;-63.766;2023-11-21T08:31:00;1.65;;;1.00;;
59974;SDS011;62136;-35.664;-63.766;2023-11-21T08:33:27;3.72;;;1.17;;
59974;SDS011;62136;-35.664;-63.766;2023-11-21T08:35:54;2.83;;;0.95;;
59974;SDS011;62136;-35.664;-63.766;2023-11-21T08:38:21;1.10;;;0.73;;
59974;SDS011;62136;-35.664;-63.766;2023-11-21T08:40:48;0.85;;;0.60;;
59974;SDS011;62136;-35.664;-63.766;2023-11-21T08:43:15;1.10;;;0.82;;
59974;SDS011;62136;-35.664;-63.766;2023-11-21T08:45:45;2.03;;;0.70;;
59974;SDS011;62136;-35.664;-63.766;2023-11-21T08:48:12;2.85;;;0.80;;
59974;SDS011;62136;-35.664;-63.766;2023-11-21T08:50:39;2.10;;;0.90;;
59974;SDS011;62136;-35.664;-63.766;2023-11-21T08:53:06;1.98;;;0.90;;
59974;SDS011;62136;-35.664;-63.766;2023-11-21T08:55:33;0.70;;;0.70;;
59974;SDS011;62136;-35.664;-63.766;2023-11-21T08:58:02;0.80;;;0.80;;
59974;SDS011;62136;-35.664;-63.766;2023-11-21T09:00:31;0.80;;;0.80;;
59974;SDS011;62136;-35.664;-63.766;2023-11-21T09:03:00;1.73;;;0.75;;
59974;SDS011;62136;-35.664;-63.766;2023-11-21T09:05:29;1.20;;;0.90;;
59974;SDS011;62136;-35.664;-63.766;2023-11-21T09:07:55;1.55;;;0.77;;
59974;SDS011;62136;-35.664;-63.766;2023-11-21T09:10:22;1.35;;;0.80;;
59974;SDS011;62136;-35.664;-63.766;2023-11-21T09:12:50;1.02;;;0.70;;
59974;SDS011;62136;-35.664;-63.766;2023-11-21T09:15:17;1.45;;;0.88;;
59974;SDS011;62136;-35.664;-63.766;2023-11-21T09:17:45;1.88;;;1.00;;
59974;SDS011;62136;-35.664;-63.766;2023-11-21T09:20:11;0.63;;;0.60;;
59974;SDS011;62136;-35.664;-63.766;2023-11-21T09:22:40;1.88;;;0.75;;
59974;SDS011;62136;-35.664;-63.766;2023-11-21T09:25:07;2.72;;;1.20;;
59974;SDS011;62136;-35.664;-63.766;2023-11-21T09:27:34;1.55;;;0.80;;
59974;SDS011;62136;-35.664;-63.766;2023-11-21T09:30:01;1.90;;;0.85;;
59974;SDS011;62136;-35.664;-63.766;2023-11-21T09:32:35;0.82;;;0.70;;
59974;SDS011;62136;-35.664;-63.766;2023-11-21T09:35:04;1.20;;;0.73;;
59974;SDS011;62136;-35.664;-63.766;2023-11-21T09:37:33;1.52;;;0.65;;
59974;SDS011;62136;-35.664;-63.766;2023-11-21T09:40:03;0.90;;;0.73;;
59974;SDS011;62136;-35.664;-63.766;2023-11-21T09:42:43;2.20;;;0.80;;
59974;SDS011;62136;-35.664;-63.766;2023-11-21T09:45:26;1.83;;;0.88;;
59974;SDS011;62136;-35.664;-63.766;2023-11-21T09:47:55;1.30;;;0.85;;
59974;SDS011;62136;-35.664;-63.766;2023-11-21T09:50:22;0.70;;;0.70;;
59974;SDS011;62136;-35.664;-63.766;2023-11-21T09:55:41;1.30;;;0.60;;
59974;SDS011;62136;-35.664;-63.766;2023-11-21T09:58:09;2.50;;;0.88;;
59974;SDS011;62136;-35.664;-63.766;2023-11-21T10:00:43;1.45;;;0.70;;
59974;SDS011;62136;-35.664;-63.766;2023-11-21T10:03:12;0.93;;;0.57;;
59974;SDS011;62136;-35.664;-63.766;2023-11-21T10:05:40;2.38;;;0.77;;
59974;SDS011;62136;-35.664;-63.766;2023-11-21T10:08:14;1.70;;;0.90;;
59974;SDS011;62136;-35.664;-63.766;2023-11-21T10:10:44;2.15;;;0.77;;
59974;SDS011;62136;-35.664;-63.766;2023-11-21T10:13:15;1.35;;;0.85;;
59974;SDS011;62136;-35.664;-63.766;2023-11-21T10:15:47;1.05;;;0.77;;
59974;SDS011;62136;-35.664;-63.766;2023-11-21T10:18:16;3.15;;;0.88;;
59974;SDS011;62136;-35.664;-63.766;2023-11-21T10:20:44;2.70;;;0.80;;
59974;SDS011;62136;-35.664;-63.766;2023-11-21T10:23:21;2.22;;;0.98;;
59974;SDS011;62136;-35.664;-63.766;2023-11-21T10:25:48;1.52;;;0.82;;
59974;SDS011;62136;-35.664;-63.766;2023-11-21T10:28:17;2.78;;;0.77;;
59974;SDS011;62136;-35.664;-63.766;2023-11-21T10:30:44;1.67;;;0.82;;
59974;SDS011;62136;-35.664;-63.766;2023-11-21T10:33:11;2.30;;;0.70;;
59974;SDS011;62136;-35.664;-63.766;2023-11-21T10:38:21;1.38;;;0.77;;
59974;SDS011;62136;-35.664;-63.766;2023-11-21T10:40:50;1.58;;;1.00;;
59974;SDS011;62136;-35.664;-63.766;2023-11-21T10:43:17;0.82;;;0.57;;
59974;SDS011;62136;-35.664;-63.766;2023-11-21T10:45:45;1.25;;;0.70;;
59974;SDS011;62136;-35.664;-63.766;2023-11-21T10:48:13;3.50;;;0.68;;
59974;SDS011;62136;-35.664;-63.766;2023-11-21T10:50:41;2.78;;;0.98;;
59974;SDS011;62136;-35.664;-63.766;2023-11-21T10:53:12;2.22;;;1.10;;
59974;SDS011;62136;-35.664;-63.766;2023-11-21T10:55:39;2.35;;;0.60;;
59974;SDS011;62136;-35.664;-63.766;2023-11-21T10:58:09;3.08;;;0.70;;
59974;SDS011;62136;-35.664;-63.766;2023-11-21T11:00:39;3.50;;;0.90;;
59974;SDS011;62136;-35.664;-63.766;2023-11-21T11:03:10;2.58;;;1.00;;
59974;SDS011;62136;-35.664;-63.766;2023-11-21T11:05:44;3.63;;;0.82;;
59974;SDS011;62136;-35.664;-63.766;2023-11-21T11:08:16;3.22;;;0.95;;
59974;SDS011;62136;-35.664;-63.766;2023-11-21T11:10:51;2.78;;;1.20;;
59974;SDS011;62136;-35.664;-63.766;2023-11-21T11:13:19;3.60;;;0.80;;
59974;SDS011;62136;-35.664;-63.766;2023-11-21T11:15:49;6.38;;;1.40;;
59974;SDS011;62136;-35.664;-63.766;2023-11-21T11:18:28;5.55;;;1.27;;
59974;SDS011;62136;-35.664;-63.766;2023-11-21T11:21:00;3.20;;;0.98;;
59974;SDS011;62136;-35.664;-63.766;2023-11-21T11:29:41;3.85;;;1.23;;
59974;SDS011;62136;-35.664;-63.766;2023-11-21T11:32:38;7.65;;;1.30;;
59974;SDS011;62136;-35.664;-63.766;2023-11-21T11:35:15;3.05;;;1.00;;
59974;SDS011;62136;-35.664;-63.766;2023-11-21T11:37:53;4.95;;;0.95;;
59974;SDS011;62136;-35.664;-63.766;2023-11-21T11:40:20;4.82;;;1.00;;
59974;SDS011;62136;-35.664;-63.766;2023-11-21T11:42:58;6.05;;;0.88;;
59974;SDS011;62136;-35.664;-63.766;2023-11-21T11:45:33;3.67;;;0.90;;
59974;SDS011;62136;-35.664;-63.766;2023-11-21T11:48:02;4.10;;;0.80;;
59974;SDS011;62136;-35.664;-63.766;2023-11-21T11:50:31;3.55;;;1.52;;
59974;SDS011;62136;-35.664;-63.766;2023-11-21T11:53:14;7.30;;;1.05;;
59974;SDS011;62136;-35.664;-63.766;2023-11-21T11:55:43;3.90;;;1.00;;
59974;SDS011;62136;-35.664;-63.766;2023-11-21T11:58:13;4.85;;;1.55;;
59974;SDS011;62136;-35.664;-63.766;2023-11-21T12:00:40;4.53;;;1.25;;
59974;SDS011;62136;-35.664;-63.766;2023-11-21T12:03:10;3.33;;;1.10;;
59974;SDS011;62136;-35.664;-63.766;2023-11-21T12:05:39;5.55;;;1.40;;
59974;SDS011;62136;-35.664;-63.766;2023-11-21T12:08:11;6.45;;;1.30;;
59974;SDS011;62136;-35.664;-63.766;2023-11-21T12:10:38;3.65;;;1.10;;
59974;SDS011;62136;-35.664;-63.766;2023-11-21T12:13:10;4.38;;;1.80;;
59974;SDS011;62136;-35.664;-63.766;2023-11-21T12:15:39;3.05;;;1.63;;
59974;SDS011;62136;-35.664;-63.766;2023-11-21T12:18:07;4.13;;;1.70;;
59974;SDS011;62136;-35.664;-63.766;2023-11-21T12:20:40;8.80;;;1.60;;
59974;SDS011;62136;-35.664;-63.766;2023-11-21T12:23:08;6.53;;;1.55;;
59974;SDS011;62136;-35.664;-63.766;2023-11-21T12:25:36;3.67;;;1.20;;
59974;SDS011;62136;-35.664;-63.766;2023-11-21T12:28:08;4.65;;;1.35;;
59974;SDS011;62136;-35.664;-63.766;2023-11-21T12:30:38;4.28;;;1.48;;
59974;SDS011;62136;-35.664;-63.766;2023-11-21T12:33:09;3.67;;;1.25;;
59974;SDS011;62136;-35.664;-63.766;2023-11-21T12:35:41;6.20;;;1.83;;
59974;SDS011;62136;-35.664;-63.766;2023-11-21T12:38:17;8.30;;;1.95;;
59974;SDS011;62136;-35.664;-63.766;2023-11-21T12:40:45;7.38;;;1.45;;
59974;SDS011;62136;-35.664;-63.766;2023-11-21T12:43:18;14.60;;;3.67;;
59974;SDS011;62136;-35.664;-63.766;2023-11-21T12:45:46;8.40;;;2.90;;
59974;SDS011;62136;-35.664;-63.766;2023-11-21T12:48:20;8.35;;;2.88;;
59974;SDS011;62136;-35.664;-63.766;2023-11-21T12:50:50;8.10;;;2.75;;
59974;SDS011;62136;-35.664;-63.766;2023-11-21T12:53:19;11.77;;;2.92;;
59974;SDS011;62136;-35.664;-63.766;2023-11-21T12:55:52;6.63;;;1.83;;
59974;SDS011;62136;-35.664;-63.766;2023-11-21T12:58:43;5.22;;;1.85;;
59974;SDS011;62136;-35.664;-63.766;2023-11-21T13:01:14;7.07;;;1.60;;
59974;SDS011;62136;-35.664;-63.766;2023-11-21T13:03:50;6.20;;;1.92;;
59974;SDS011;62136;-35.664;-63.766;2023-11-21T13:06:21;5.65;;;1.40;;
59974;SDS011;62136;-35.664;-63.766;2023-11-21T13:08:50;10.98;;;2.22;;
59974;SDS011;62136;-35.664;-63.766;2023-11-21T13:11:20;6.45;;;2.13;;
59974;SDS011;62136;-35.664;-63.766;2023-11-21T13:13:50;7.60;;;1.55;;
59974;SDS011;62136;-35.664;-63.766;2023-11-21T13:16:21;8.48;;;1.45;;
59974;SDS011;62136;-35.664;-63.766;2023-11-21T13:18:51;9.43;;;1.65;;
59974;SDS011;62136;-35.664;-63.766;2023-11-21T13:21:20;4.20;;;1.30;;
59974;SDS011;62136;-35.664;-63.766;2023-11-21T13:23:56;5.97;;;1.80;;
59974;SDS011;62136;-35.664;-63.766;2023-11-21T13:26:26;8.85;;;1.90;;
59974;SDS011;62136;-35.664;-63.766;2023-11-21T13:28:53;5.68;;;1.77;;
59974;SDS011;62136;-35.664;-63.766;2023-11-21T13:31:24;5.88;;;1.80;;
59974;SDS011;62136;-35.664;-63.766;2023-11-21T13:33:58;4.25;;;1.58;;
59974;SDS011;62136;-35.664;-63.766;2023-11-21T13:36:30;6.93;;;1.73;;
59974;SDS011;62136;-35.664;-63.766;2023-11-21T13:39:00;6.80;;;1.65;;
59974;SDS011;62136;-35.664;-63.766;2023-11-21T13:41:33;8.05;;;1.45;;
59974;SDS011;62136;-35.664;-63.766;2023-11-21T13:44:04;7.60;;;1.45;;
59974;SDS011;62136;-35.664;-63.766;2023-11-21T13:46:49;10.30;;;1.40;;
59974;SDS011;62136;-35.664;-63.766;2023-11-21T13:49:17;5.00;;;1.30;;
59974;SDS011;62136;-35.664;-63.766;2023-11-21T13:51:46;7.63;;;1.33;;
59974;SDS011;62136;-35.664;-63.766;2023-11-21T13:54:19;6.35;;;1.60;;
59974;SDS011;62136;-35.664;-63.766;2023-11-21T13:56:49;4.38;;;1.30;;
59974;SDS011;62136;-35.664;-63.766;2023-11-21T13:59:20;4.43;;;1.60;;
59974;SDS011;62136;-35.664;-63.766;2023-11-21T14:01:50;3.92;;;1.65;;
59974;SDS011;62136;-35.664;-63.766;2023-11-21T14:07:10;4.82;;;1.55;;
59974;SDS011;62136;-35.664;-63.766;2023-11-21T14:10:07;5.80;;;1.58;;
59974;SDS011;62136;-35.664;-63.766;2023-11-21T14:12:47;4.35;;;1.55;;
59974;SDS011;62136;-35.664;-63.766;2023-11-21T14:15:20;8.82;;;1.92;;
59974;SDS011;62136;-35.664;-63.766;2023-11-21T14:17:49;6.82;;;1.85;;
59974;SDS011;62136;-35.664;-63.766;2023-11-21T14:20:18;6.03;;;1.55;;
59974;SDS011;62136;-35.664;-63.766;2023-11-21T14:22:55;4.68;;;1.10;;
59974;SDS011;62136;-35.664;-63.766;2023-11-21T14:25:24;6.30;;;1.40;;
59974;SDS011;62136;-35.664;-63.766;2023-11-21T14:27:52;3.85;;;1.20;;
59974;SDS011;62136;-35.664;-63.766;2023-11-21T14:30:19;4.38;;;1.30;;
59974;SDS011;62136;-35.664;-63.766;2023-11-21T14:32:48;3.45;;;1.40;;
59974;SDS011;62136;-35.664;-63.766;2023-11-21T14:35:36;7.43;;;1.55;;
59974;SDS011;62136;-35.664;-63.766;2023-11-21T14:38:05;5.75;;;1.33;;